sensor_id;sensor_type;location;lat;lon;timestamp;pressure;altitude;pressure_sealevel;temperature;humidity
12247;BME280;6186;52.022;4.692;2023-02-17T00:00:23;101991.59;;;10.94;100.00
12247;BME280;6186;52.022;4.692;2023-02-17T00:02:48;101995.09;;;10.97;100.00
12247;BME280;6186;52.022;4.692;2023-02-17T00:05:14;101993.31;;;10.96;100.00
12247;BME280;6186;52.022;4.692;2023-02-17T00:07:39;101990.72;;;10.90;100.00
12247;BME280;6186;52.022;4.692;2023-02-17T00:10:06;101988.97;;;10.92;100.00
12247;BME280;6186;52.022;4.692;2023-02-17T00:12:32;101984.59;;;10.91;100.00
12247;BME280;6186;52.022;4.692;2023-02-17T00:14:57;101984.63;;;10.90;100.00
12247;BME280;6186;52.022;4.692;2023-02-17T00:17:22;101990.75;;;10.89;100.00
12247;BME280;6186;52.022;4.692;2023-02-17T00:19:48;101996.91;;;10.86;100.00
12247;BME280;6186;52.022;4.692;2023-02-17T00:22:13;101985.53;;;10.84;100.00
12247;BME280;6186;52.022;4.692;2023-02-17T00:24:39;101998.69;;;10.83;100.00
12247;BME280;6186;52.022;4.692;2023-02-17T00:27:05;101995.22;;;10.78;100.00
12247;BME280;6186;52.022;4.692;2023-02-17T00:29:32;101993.53;;;10.71;100.00
12247;BME280;6186;52.022;4.692;2023-02-17T00:31:57;102001.44;;;10.71;100.00
12247;BME280;6186;52.022;4.692;2023-02-17T00:34:23;101988.34;;;10.63;100.00
12247;BME280;6186;52.022;4.692;2023-02-17T00:36:48;101986.56;;;10.65;100.00
12247;BME280;6186;52.022;4.692;2023-02-17T00:39:15;101983.94;;;10.62;100.00
12247;BME280;6186;52.022;4.692;2023-02-17T00:41:41;101978.69;;;10.59;100.00
12247;BME280;6186;52.022;4.692;2023-02-17T00:44:08;101984.84;;;10.58;100.00
12247;BME280;6186;52.022;4.692;2023-02-17T00:46:39;101989.25;;;10.58;100.00
12247;BME280;6186;52.022;4.692;2023-02-17T00:49:04;101984.88;;;10.55;100.00
12247;BME280;6186;52.022;4.692;2023-02-17T00:51:29;101982.25;;;10.54;100.00
12247;BME280;6186;52.022;4.692;2023-02-17T00:53:55;101983.13;;;10.51;100.00
12247;BME280;6186;52.022;4.692;2023-02-17T00:56:20;101985.78;;;10.51;100.00
12247;BME280;6186;52.022;4.692;2023-02-17T00:58:45;101975.28;;;10.48;100.00
12247;BME280;6186;52.022;4.692;2023-02-17T01:01:11;101979.66;;;10.46;100.00
12247;BME280;6186;52.022;4.692;2023-02-17T01:03:37;101970.94;;;10.43;100.00
12247;BME280;6186;52.022;4.692;2023-02-17T01:06:08;101968.31;;;10.38;100.00
12247;BME280;6186;52.022;4.692;2023-02-17T01:08:33;101964.81;;;10.34;100.00
12247;BME280;6186;52.022;4.692;2023-02-17T01:10:59;101978.81;;;10.39;100.00
12247;BME280;6186;52.022;4.692;2023-02-17T01:13:24;101988.47;;;10.37;100.00
12247;BME280;6186;52.022;4.692;2023-02-17T01:15:51;101995.53;;;10.37;100.00
12247;BME280;6186;52.022;4.692;2023-02-17T01:18:19;101986.75;;;10.32;100.00
12247;BME280;6186;52.022;4.692;2023-02-17T01:20:45;102006.03;;;10.35;100.00
12247;BME280;6186;52.022;4.692;2023-02-17T01:23:11;101990.28;;;10.28;100.00
12247;BME280;6186;52.022;4.692;2023-02-17T01:25:42;101999.94;;;10.30;100.00
12247;BME280;6186;52.022;4.692;2023-02-17T01:28:10;101980.66;;;10.24;100.00
12247;BME280;6186;52.022;4.692;2023-02-17T01:30:38;101977.19;;;10.23;100.00
12247;BME280;6186;52.022;4.692;2023-02-17T01:33:03;101970.13;;;10.24;100.00
12247;BME280;6186;52.022;4.692;2023-02-17T01:35:29;101980.69;;;10.22;100.00
12247;BME280;6186;52.022;4.692;2023-02-17T01:37:54;101969.28;;;10.22;100.00
12247;BME280;6186;52.022;4.692;2023-02-17T01:40:19;101951.78;;;10.15;100.00
12247;BME280;6186;52.022;4.692;2023-02-17T01:42:45;101966.66;;;10.20;100.00
12247;BME280;6186;52.022;4.692;2023-02-17T01:48:05;101958.75;;;10.22;100.00
12247;BME280;6186;52.022;4.692;2023-02-17T01:50:39;101966.66;;;10.20;100.00
12247;BME280;6186;52.022;4.692;2023-02-17T01:53:08;101957.03;;;10.19;100.00
12247;BME280;6186;52.022;4.692;2023-02-17T01:55:36;101964.06;;;10.17;100.00
12247;BME280;6186;52.022;4.692;2023-02-17T01:58:05;101962.31;;;10.12;100.00
12247;BME280;6186;52.022;4.692;2023-02-17T02:00:33;101955.31;;;10.11;100.00
12247;BME280;6186;52.022;4.692;2023-02-17T02:03:00;101942.16;;;10.09;100.00
12247;BME280;6186;52.022;4.692;2023-02-17T02:05:28;101949.16;;;10.13;100.00
12247;BME280;6186;52.022;4.692;2023-02-17T02:07:54;101957.03;;;10.16;100.00
12247;BME280;6186;52.022;4.692;2023-02-17T02:10:19;101943.88;;;10.16;100.00
12247;BME280;6186;52.022;4.692;2023-02-17T02:12:45;101936.91;;;10.12;100.00
12247;BME280;6186;52.022;4.692;2023-02-17T02:15:13;101915.84;;;10.09;100.00
12247;BME280;6186;52.022;4.692;2023-02-17T02:29:17;101911.47;;;10.05;100.00
12247;BME280;6186;52.022;4.692;2023-02-17T02:31:59;101915.00;;;10.04;100.00
12247;BME280;6186;52.022;4.692;2023-02-17T02:34:39;101922.00;;;10.04;100.00
12247;BME280;6186;52.022;4.692;2023-02-17T02:37:17;101911.47;;;10.04;100.00
12247;BME280;6186;52.022;4.692;2023-02-17T02:39:47;101902.72;;;10.05;100.00
12247;BME280;6186;52.022;4.692;2023-02-17T02:42:17;101904.44;;;10.06;100.00
12247;BME280;6186;52.022;4.692;2023-02-17T02:44:43;101900.91;;;10.07;100.00
12247;BME280;6186;52.022;4.692;2023-02-17T02:47:44;101903.56;;;10.08;100.00
12247;BME280;6186;52.022;4.692;2023-02-17T02:50:13;101908.84;;;10.10;100.00
12247;BME280;6186;52.022;4.692;2023-02-17T02:55:26;101901.81;;;10.12;100.00
12247;BME280;6186;52.022;4.692;2023-02-17T02:58:01;101893.94;;;10.12;100.00
12247;BME280;6186;52.022;4.692;2023-02-17T03:00:40;101886.91;;;10.12;100.00
12247;BME280;6186;52.022;4.692;2023-02-17T03:03:17;101895.66;;;10.13;100.00
12247;BME280;6186;52.022;4.692;2023-02-17T03:06:07;101887.78;;;10.13;100.00
12247;BME280;6186;52.022;4.692;2023-02-17T03:08:38;101889.53;;;10.14;100.00
12247;BME280;6186;52.022;4.692;2023-02-17T03:11:07;101875.50;;;10.13;100.00
12247;BME280;6186;52.022;4.692;2023-02-17T03:13:33;101872.88;;;10.12;100.00
12247;BME280;6186;52.022;4.692;2023-02-17T03:16:04;101864.97;;;10.15;100.00
12247;BME280;6186;52.022;4.692;2023-02-17T03:18:31;101859.69;;;10.16;100.00
12247;BME280;6186;52.022;4.692;2023-02-17T03:21:03;101839.50;;;10.17;100.00
12247;BME280;6186;52.022;4.692;2023-02-17T03:23:30;101851.78;;;10.18;100.00
12247;BME280;6186;52.022;4.692;2023-02-17T03:25:55;101854.41;;;10.19;100.00
12247;BME280;6186;52.022;4.692;2023-02-17T03:28:21;101844.78;;;10.17;100.00
12247;BME280;6186;52.022;4.692;2023-02-17T03:30:46;101854.41;;;10.21;100.00
12247;BME280;6186;52.022;4.692;2023-02-17T03:33:12;101864.00;;;10.22;100.00
12247;BME280;6186;52.022;4.692;2023-02-17T03:35:37;101854.41;;;10.21;100.00
12247;BME280;6186;52.022;4.692;2023-02-17T03:38:03;101844.78;;;10.20;100.00
12247;BME280;6186;52.022;4.692;2023-02-17T03:40:28;101841.28;;;10.18;100.00
12247;BME280;6186;52.022;4.692;2023-02-17T03:42:55;101850.84;;;10.25;100.00
12247;BME280;6186;52.022;4.692;2023-02-17T03:45:21;101858.72;;;10.26;100.00
12247;BME280;6186;52.022;4.692;2023-02-17T03:47:46;101862.22;;;10.28;100.00
12247;BME280;6186;52.022;4.692;2023-02-17T03:50:11;101871.88;;;10.29;100.00
12247;BME280;6186;52.022;4.692;2023-02-17T03:52:37;101864.84;;;10.30;100.00
12247;BME280;6186;52.022;4.692;2023-02-17T03:55:02;101864.81;;;10.31;100.00
12247;BME280;6186;52.022;4.692;2023-02-17T03:57:27;101874.47;;;10.34;100.00
12247;BME280;6186;52.022;4.692;2023-02-17T03:59:53;101864.81;;;10.36;100.00
12247;BME280;6186;52.022;4.692;2023-02-17T04:02:18;101876.19;;;10.38;100.00
12247;BME280;6186;52.022;4.692;2023-02-17T04:04:43;101861.28;;;10.38;100.00
12247;BME280;6186;52.022;4.692;2023-02-17T04:07:09;101862.16;;;10.40;100.00
12247;BME280;6186;52.022;4.692;2023-02-17T04:09:34;101861.25;;;10.41;100.00
12247;BME280;6186;52.022;4.692;2023-02-17T04:11:59;101866.50;;;10.45;100.00
12247;BME280;6186;52.022;4.692;2023-02-17T04:14:25;101871.75;;;10.46;100.00
12247;BME280;6186;52.022;4.692;2023-02-17T04:16:50;101874.38;;;10.46;100.00
12247;BME280;6186;52.022;4.692;2023-02-17T04:19:15;101888.38;;;10.50;100.00
12247;BME280;6186;52.022;4.692;2023-02-17T04:21:41;101877.84;;;10.51;100.00
12247;BME280;6186;52.022;4.692;2023-02-17T04:24:06;101865.53;;;10.53;100.00
12247;BME280;6186;52.022;4.692;2023-02-17T04:26:31;101873.44;;;10.53;100.00
12247;BME280;6186;52.022;4.692;2023-02-17T04:28:57;101858.50;;;10.55;100.00
12247;BME280;6186;52.022;4.692;2023-02-17T04:31:22;101857.59;;;10.56;100.00
12247;BME280;6186;52.022;4.692;2023-02-17T04:33:48;101856.75;;;10.56;100.00
12247;BME280;6186;52.022;4.692;2023-02-17T04:36:13;101850.56;;;10.57;100.00
12247;BME280;6186;52.022;4.692;2023-02-17T04:38:39;101848.00;;;10.54;100.00
12247;BME280;6186;52.022;4.692;2023-02-17T04:41:05;101850.56;;;10.57;100.00
12247;BME280;6186;52.022;4.692;2023-02-17T04:43:31;101854.91;;;10.62;100.00
12247;BME280;6186;52.022;4.692;2023-02-17T04:45:57;101845.25;;;10.64;100.00
12247;BME280;6186;52.022;4.692;2023-02-17T04:48:22;101849.63;;;10.65;100.00
12247;BME280;6186;52.022;4.692;2023-02-17T04:50:48;101834.69;;;10.66;100.00
12247;BME280;6186;52.022;4.692;2023-02-17T04:53:13;101839.97;;;10.64;100.00
12247;BME280;6186;52.022;4.692;2023-02-17T04:55:40;101853.13;;;10.69;100.00
12247;BME280;6186;52.022;4.692;2023-02-17T04:58:05;101863.63;;;10.70;100.00
12247;BME280;6186;52.022;4.692;2023-02-17T05:00:31;101855.72;;;10.70;100.00
12247;BME280;6186;52.022;4.692;2023-02-17T05:02:56;101877.66;;;10.72;100.00
12247;BME280;6186;52.022;4.692;2023-02-17T05:05:22;101884.66;;;10.73;100.00
12247;BME280;6186;52.022;4.692;2023-02-17T05:07:47;101877.59;;;10.75;100.00
12247;BME280;6186;52.022;4.692;2023-02-17T05:10:13;101874.97;;;10.75;100.00
12247;BME280;6186;52.022;4.692;2023-02-17T05:12:39;101857.47;;;10.73;100.00
12247;BME280;6186;52.022;4.692;2023-02-17T05:15:06;101858.31;;;10.76;100.00
12247;BME280;6186;52.022;4.692;2023-02-17T05:17:31;101863.56;;;10.76;100.00
12247;BME280;6186;52.022;4.692;2023-02-17T05:19:57;101870.56;;;10.77;100.00
12247;BME280;6186;52.022;4.692;2023-02-17T05:22:23;101866.19;;;10.78;100.00
12247;BME280;6186;52.022;4.692;2023-02-17T05:24:49;101850.41;;;10.73;100.00
12247;BME280;6186;52.022;4.692;2023-02-17T05:27:14;101853.00;;;10.79;100.00
12247;BME280;6186;52.022;4.692;2023-02-17T05:29:40;101839.81;;;10.79;100.00
12247;BME280;6186;52.022;4.692;2023-02-17T05:32:05;101837.16;;;10.81;100.00
12247;BME280;6186;52.022;4.692;2023-02-17T05:34:31;101841.59;;;10.80;100.00
12247;BME280;6186;52.022;4.692;2023-02-17T05:36:56;101852.09;;;10.82;100.00
12247;BME280;6186;52.022;4.692;2023-02-17T05:39:22;101847.72;;;10.82;100.00
12247;BME280;6186;52.022;4.692;2023-02-17T05:41:47;101833.66;;;10.83;100.00
12247;BME280;6186;52.022;4.692;2023-02-17T05:44:12;101830.13;;;10.84;100.00
12247;BME280;6186;52.022;4.692;2023-02-17T05:46:38;101823.09;;;10.85;100.00
12247;BME280;6186;52.022;4.692;2023-02-17T05:49:03;101825.72;;;10.85;100.00
12247;BME280;6186;52.022;4.692;2023-02-17T05:51:28;101832.72;;;10.87;100.00
12247;BME280;6186;52.022;4.692;2023-02-17T05:53:54;101834.47;;;10.88;100.00
12247;BME280;6186;52.022;4.692;2023-02-17T05:56:19;101816.03;;;10.88;100.00
12247;BME280;6186;52.022;4.692;2023-02-17T05:58:44;101815.16;;;10.89;100.00
12247;BME280;6186;52.022;4.692;2023-02-17T06:01:10;101815.22;;;10.83;100.00
12247;BME280;6186;52.022;4.692;2023-02-17T06:03:36;101815.16;;;10.86;100.00
12247;BME280;6186;52.022;4.692;2023-02-17T06:06:02;101815.16;;;10.86;100.00
12247;BME280;6186;52.022;4.692;2023-02-17T06:08:28;101823.00;;;10.92;100.00
12247;BME280;6186;52.022;4.692;2023-02-17T06:10:54;101812.53;;;10.86;100.00
12247;BME280;6186;52.022;4.692;2023-02-17T06:13:20;101813.41;;;10.87;100.00
12247;BME280;6186;52.022;4.692;2023-02-17T06:15:45;101814.25;;;10.92;100.00
12247;BME280;6186;52.022;4.692;2023-02-17T06:18:11;101817.78;;;10.89;100.00
12247;BME280;6186;52.022;4.692;2023-02-17T06:20:37;101819.50;;;10.93;100.00
12247;BME280;6186;52.022;4.692;2023-02-17T06:23:02;101816.84;;;10.95;100.00
12247;BME280;6186;52.022;4.692;2023-02-17T06:25:27;101810.69;;;10.94;100.00
12247;BME280;6186;52.022;4.692;2023-02-17T06:27:52;101813.31;;;10.94;100.00
12247;BME280;6186;52.022;4.692;2023-02-17T06:30:18;101807.19;;;10.95;100.00
12247;BME280;6186;52.022;4.692;2023-02-17T06:32:45;101801.03;;;10.95;100.00
12247;BME280;6186;52.022;4.692;2023-02-17T06:35:10;101805.41;;;10.96;100.00
12247;BME280;6186;52.022;4.692;2023-02-17T06:37:36;101800.22;;;10.88;100.00
12247;BME280;6186;52.022;4.692;2023-02-17T06:40:01;101787.91;;;10.90;100.00
12247;BME280;6186;52.022;4.692;2023-02-17T06:42:26;101802.78;;;10.94;100.00
12247;BME280;6186;52.022;4.692;2023-02-17T06:44:52;101793.16;;;10.93;100.00
12247;BME280;6186;52.022;4.692;2023-02-17T06:47:17;101773.88;;;10.88;100.00
12247;BME280;6186;52.022;4.692;2023-02-17T06:49:42;101792.28;;;10.93;100.00
12247;BME280;6186;52.022;4.692;2023-02-17T06:52:08;101775.69;;;10.85;100.00
12247;BME280;6186;52.022;4.692;2023-02-17T06:54:33;101804.56;;;10.94;100.00
12247;BME280;6186;52.022;4.692;2023-02-17T06:56:58;101776.50;;;10.91;100.00
12247;BME280;6186;52.022;4.692;2023-02-17T06:59:24;101779.16;;;10.88;100.00
12247;BME280;6186;52.022;4.692;2023-02-17T07:01:49;101783.47;;;10.95;100.00
12247;BME280;6186;52.022;4.692;2023-02-17T07:04:15;101781.69;;;10.99;100.00
12247;BME280;6186;52.022;4.692;2023-02-17T07:06:40;101797.44;;;11.00;100.00
12247;BME280;6186;52.022;4.692;2023-02-17T07:09:06;101799.19;;;11.03;100.00
12247;BME280;6186;52.022;4.692;2023-02-17T07:11:32;101785.13;;;11.04;100.00
12247;BME280;6186;52.022;4.692;2023-02-17T07:13:58;101781.59;;;11.05;100.00
12247;BME280;6186;52.022;4.692;2023-02-17T07:16:23;101792.09;;;11.08;100.00
12247;BME280;6186;52.022;4.692;2023-02-17T07:18:49;101805.25;;;11.09;100.00
12247;BME280;6186;52.022;4.692;2023-02-17T07:21:14;101827.19;;;11.11;100.00
12247;BME280;6186;52.022;4.692;2023-02-17T07:23:40;101814.00;;;11.11;100.00
12247;BME280;6186;52.022;4.692;2023-02-17T07:26:08;101828.88;;;11.17;100.00
12247;BME280;6186;52.022;4.692;2023-02-17T07:28:34;101819.22;;;11.17;100.00
12247;BME280;6186;52.022;4.692;2023-02-17T07:31:05;101792.94;;;11.11;100.00
12247;BME280;6186;52.022;4.692;2023-02-17T07:33:31;101797.25;;;11.17;100.00
12247;BME280;6186;52.022;4.692;2023-02-17T07:35:57;101784.03;;;11.18;100.00
12247;BME280;6186;52.022;4.692;2023-02-17T07:38:22;101801.66;;;11.18;100.00
12247;BME280;6186;52.022;4.692;2023-02-17T07:40:48;101808.66;;;11.17;100.00
12247;BME280;6186;52.022;4.692;2023-02-17T07:43:13;101806.94;;;11.16;100.00
12247;BME280;6186;52.022;4.692;2023-02-17T07:45:38;101803.44;;;11.16;100.00
12247;BME280;6186;52.022;4.692;2023-02-17T07:48:04;101820.09;;;11.15;100.00
12247;BME280;6186;52.022;4.692;2023-02-17T07:50:29;101804.31;;;11.13;100.00
12247;BME280;6186;52.022;4.692;2023-02-17T07:52:54;101813.97;;;11.13;100.00
12247;BME280;6186;52.022;4.692;2023-02-17T07:55:20;101805.22;;;11.12;100.00
12247;BME280;6186;52.022;4.692;2023-02-17T07:57:45;101814.88;;;11.12;100.00
12247;BME280;6186;52.022;4.692;2023-02-17T08:00:11;101821.03;;;11.12;100.00
12247;BME280;6186;52.022;4.692;2023-02-17T08:02:36;101820.13;;;11.13;100.00
12247;BME280;6186;52.022;4.692;2023-02-17T08:05:02;101849.13;;;11.13;100.00
12247;BME280;6186;52.022;4.692;2023-02-17T08:07:27;101837.72;;;11.11;100.00
12247;BME280;6186;52.022;4.692;2023-02-17T08:09:52;101843.81;;;11.15;100.00
12247;BME280;6186;52.022;4.692;2023-02-17T08:12:36;101861.38;;;11.17;100.00
12247;BME280;6186;52.022;4.692;2023-02-17T08:15:34;101850.03;;;11.09;100.00
12247;BME280;6186;52.022;4.692;2023-02-17T08:18:00;101836.88;;;11.09;100.00
12247;BME280;6186;52.022;4.692;2023-02-17T08:20:26;101844.75;;;11.12;100.00
12247;BME280;6186;52.022;4.692;2023-02-17T08:22:51;101832.44;;;11.13;100.00
12247;BME280;6186;52.022;4.692;2023-02-17T08:25:17;101847.38;;;11.12;100.00
12247;BME280;6186;52.022;4.692;2023-02-17T08:27:43;101847.38;;;11.12;100.00
12247;BME280;6186;52.022;4.692;2023-02-17T08:30:09;101849.13;;;11.12;100.00
12247;BME280;6186;52.022;4.692;2023-02-17T08:32:34;101868.47;;;11.12;100.00
12247;BME280;6186;52.022;4.692;2023-02-17T08:35:00;101861.44;;;11.11;100.00
12247;BME280;6186;52.022;4.692;2023-02-17T08:37:26;101862.31;;;11.12;100.00
12247;BME280;6186;52.022;4.692;2023-02-17T08:39:51;101857.94;;;11.12;100.00
12247;BME280;6186;52.022;4.692;2023-02-17T08:42:17;101872.84;;;11.12;100.00
12247;BME280;6186;52.022;4.692;2023-02-17T08:44:43;101856.16;;;11.11;100.00
12247;BME280;6186;52.022;4.692;2023-02-17T08:47:08;101857.03;;;11.12;100.00
12247;BME280;6186;52.022;4.692;2023-02-17T08:49:34;101859.69;;;11.12;100.00
12247;BME280;6186;52.022;4.692;2023-02-17T08:52:00;101876.38;;;11.12;100.00
12247;BME280;6186;52.022;4.692;2023-02-17T08:54:25;101864.91;;;11.15;100.00
12247;BME280;6186;52.022;4.692;2023-02-17T08:56:51;101866.66;;;11.17;100.00
12247;BME280;6186;52.022;4.692;2023-02-17T08:59:16;101853.44;;;11.19;100.00
12247;BME280;6186;52.022;4.692;2023-02-17T09:01:42;101873.63;;;11.21;100.00
12247;BME280;6186;52.022;4.692;2023-02-17T09:04:10;101855.16;;;11.23;100.00
12247;BME280;6186;52.022;4.692;2023-02-17T09:06:39;101871.81;;;11.25;100.00
12247;BME280;6186;52.022;4.692;2023-02-17T09:09:06;101863.06;;;11.26;100.00
12247;BME280;6186;52.022;4.692;2023-02-17T09:11:32;101856.00;;;11.25;100.00
12247;BME280;6186;52.022;4.692;2023-02-17T09:13:58;101870.09;;;11.24;100.00
12247;BME280;6186;52.022;4.692;2023-02-17T09:16:24;101874.47;;;11.25;100.00
12247;BME280;6186;52.022;4.692;2023-02-17T09:18:50;101884.13;;;11.24;100.00
12247;BME280;6186;52.022;4.692;2023-02-17T09:21:16;101892.03;;;11.27;100.00
12247;BME280;6186;52.022;4.692;2023-02-17T09:23:42;101890.19;;;11.32;100.00
12247;BME280;6186;52.022;4.692;2023-02-17T09:26:09;101880.50;;;11.34;100.00
12247;BME280;6186;52.022;4.692;2023-02-17T09:28:35;101877.81;;;11.39;100.00
12247;BME280;6186;52.022;4.692;2023-02-17T09:31:17;101868.13;;;11.41;100.00
12247;BME280;6186;52.022;4.692;2023-02-17T09:33:44;101868.13;;;11.43;100.00
12247;BME280;6186;52.022;4.692;2023-02-17T09:36:14;101854.03;;;11.44;100.00
12247;BME280;6186;52.022;4.692;2023-02-17T09:38:40;101859.22;;;11.50;100.00
12247;BME280;6186;52.022;4.692;2023-02-17T09:41:26;101861.81;;;11.53;100.00
12247;BME280;6186;52.022;4.692;2023-02-17T09:43:53;101880.25;;;11.53;100.00
12247;BME280;6186;52.022;4.692;2023-02-17T09:46:23;101873.22;;;11.55;100.00
12247;BME280;6186;52.022;4.692;2023-02-17T09:48:53;101882.84;;;11.59;100.00
12247;BME280;6186;52.022;4.692;2023-02-17T09:51:33;101884.59;;;11.60;100.00
12247;BME280;6186;52.022;4.692;2023-02-17T09:54:25;101885.34;;;11.71;100.00
12247;BME280;6186;52.022;4.692;2023-02-17T09:56:54;101869.44;;;11.75;100.00
12247;BME280;6186;52.022;4.692;2023-02-17T09:59:55;101878.25;;;11.76;100.00
12247;BME280;6186;52.022;4.692;2023-02-17T10:02:42;101863.41;;;11.64;100.00
12247;BME280;6186;52.022;4.692;2023-02-17T10:05:13;101894.00;;;11.82;100.00
12247;BME280;6186;52.022;4.692;2023-02-17T10:07:48;101895.72;;;11.83;100.00
12247;BME280;6186;52.022;4.692;2023-02-17T10:10:21;101907.13;;;11.85;100.00
12247;BME280;6186;52.022;4.692;2023-02-17T10:12:51;101908.03;;;11.84;100.00
12247;BME280;6186;52.022;4.692;2023-02-17T10:15:29;101916.84;;;11.81;100.00
12247;BME280;6186;52.022;4.692;2023-02-17T10:18:10;101895.78;;;11.80;100.00
12247;BME280;6186;52.022;4.692;2023-02-17T10:20:51;101908.91;;;11.84;100.00
12247;BME280;6186;52.022;4.692;2023-02-17T10:23:24;101905.34;;;11.88;100.00
12247;BME280;6186;52.022;4.692;2023-02-17T10:29:04;101907.88;;;11.96;100.00
12247;BME280;6186;52.022;4.692;2023-02-17T10:36:59;101893.66;;;12.06;100.00
12247;BME280;6186;52.022;4.692;2023-02-17T10:39:49;101923.53;;;12.08;100.00
12247;BME280;6186;52.022;4.692;2023-02-17T10:44:53;101929.72;;;12.07;100.00
12247;BME280;6186;52.022;4.692;2023-02-17T10:47:20;101912.19;;;12.00;100.00
12247;BME280;6186;52.022;4.692;2023-02-17T10:49:49;101930.69;;;12.01;100.00
12247;BME280;6186;52.022;4.692;2023-02-17T10:52:18;101936.81;;;12.02;100.00
12247;BME280;6186;52.022;4.692;2023-02-17T10:57:18;101962.41;;;11.95;100.00
12247;BME280;6186;52.022;4.692;2023-02-17T10:59:46;101962.47;;;11.91;100.00
12247;BME280;6186;52.022;4.692;2023-02-17T11:02:13;101963.28;;;11.94;100.00
12247;BME280;6186;52.022;4.692;2023-02-17T11:04:41;101976.53;;;11.91;100.00
12247;BME280;6186;52.022;4.692;2023-02-17T11:07:11;101964.31;;;11.86;100.00
12247;BME280;6186;52.022;4.692;2023-02-17T11:09:43;101940.59;;;11.81;100.00
12247;BME280;6186;52.022;4.692;2023-02-17T11:12:15;101941.53;;;11.79;100.00
12247;BME280;6186;52.022;4.692;2023-02-17T11:14:47;101938.03;;;11.77;100.00
12247;BME280;6186;52.022;4.692;2023-02-17T11:17:20;101939.81;;;11.75;100.00
12247;BME280;6186;52.022;4.692;2023-02-17T11:20:26;101943.34;;;11.74;100.00
12247;BME280;6186;52.022;4.692;2023-02-17T11:23:05;101960.06;;;11.73;100.00
12247;BME280;6186;52.022;4.692;2023-02-17T11:25:34;101920.53;;;11.70;100.00
12247;BME280;6186;52.022;4.692;2023-02-17T11:28:11;101951.31;;;11.68;100.00
12247;BME280;6186;52.022;4.692;2023-02-17T11:30:38;101961.88;;;11.68;100.00
12247;BME280;6186;52.022;4.692;2023-02-17T11:33:18;101961.00;;;11.67;100.00
12247;BME280;6186;52.022;4.692;2023-02-17T11:35:49;101992.66;;;11.64;100.00
12247;BME280;6186;52.022;4.692;2023-02-17T11:38:21;101967.16;;;11.66;100.00
12247;BME280;6186;52.022;4.692;2023-02-17T11:40:55;101965.44;;;11.65;100.00
12247;BME280;6186;52.022;4.692;2023-02-17T11:43:21;101968.03;;;11.67;100.00
12247;BME280;6186;52.022;4.692;2023-02-17T11:46:03;101946.91;;;11.68;100.00
12247;BME280;6186;52.022;4.692;2023-02-17T11:54:08;101980.31;;;11.68;100.00
12247;BME280;6186;52.022;4.692;2023-02-17T11:56:46;101988.25;;;11.69;100.00
12247;BME280;6186;52.022;4.692;2023-02-17T11:59:25;102002.25;;;11.74;100.00
12247;BME280;6186;52.022;4.692;2023-02-17T12:02:47;102000.41;;;11.82;100.00
12247;BME280;6186;52.022;4.692;2023-02-17T12:05:15;102008.25;;;11.87;100.00
12247;BME280;6186;52.022;4.692;2023-02-17T12:16:08;102020.50;;;11.91;100.00
12247;BME280;6186;52.022;4.692;2023-02-17T12:18:52;102009.94;;;11.94;100.00
12247;BME280;6186;52.022;4.692;2023-02-17T12:26:55;102014.34;;;11.93;100.00
12247;BME280;6186;52.022;4.692;2023-02-17T12:35:22;102032.00;;;11.85;100.00
12247;BME280;6186;52.022;4.692;2023-02-17T12:38:07;102031.13;;;11.88;100.00
12247;BME280;6186;52.022;4.692;2023-02-17T12:40:41;102036.41;;;11.88;100.00
12247;BME280;6186;52.022;4.692;2023-02-17T12:45:48;102042.56;;;11.88;100.00
12247;BME280;6186;52.022;4.692;2023-02-17T12:48:23;102040.78;;;11.90;100.00
12247;BME280;6186;52.022;4.692;2023-02-17T12:50:57;102065.34;;;11.92;100.00
12247;BME280;6186;52.022;4.692;2023-02-17T12:53:46;102056.56;;;11.92;100.00
12247;BME280;6186;52.022;4.692;2023-02-17T12:56:46;102068.88;;;11.93;100.00
12247;BME280;6186;52.022;4.692;2023-02-17T12:59:19;102058.34;;;11.91;100.00
12247;BME280;6186;52.022;4.692;2023-02-17T13:01:53;102072.41;;;11.92;100.00
12247;BME280;6186;52.022;4.692;2023-02-17T13:04:21;102046.91;;;11.91;100.00
12247;BME280;6186;52.022;4.692;2023-02-17T13:07:05;102047.84;;;11.88;100.00
12247;BME280;6186;52.022;4.692;2023-02-17T13:09:40;102046.94;;;11.88;100.00
12247;BME280;6186;52.022;4.692;2023-02-17T13:14:46;102041.59;;;11.94;100.00
12247;BME280;6186;52.022;4.692;2023-02-17T13:20:23;102048.50;;;12.04;100.00
12247;BME280;6186;52.022;4.692;2023-02-17T13:22:50;102051.97;;;12.07;100.00
12247;BME280;6186;52.022;4.692;2023-02-17T13:25:32;102044.97;;;12.06;100.00
12247;BME280;6186;52.022;4.692;2023-02-17T13:27:59;102059.00;;;12.10;100.00
12247;BME280;6186;52.022;4.692;2023-02-17T13:30:38;102068.66;;;12.09;100.00
12247;BME280;6186;52.022;4.692;2023-02-17T13:33:06;102068.66;;;12.11;100.00
12247;BME280;6186;52.022;4.692;2023-02-17T13:35:39;102041.41;;;12.10;100.00
12247;BME280;6186;52.022;4.692;2023-02-17T13:38:05;102044.00;;;12.12;100.00
12247;BME280;6186;52.022;4.692;2023-02-17T13:40:39;102030.88;;;12.06;100.00
12247;BME280;6186;52.022;4.692;2023-02-17T13:43:15;102051.06;;;12.10;100.00
12247;BME280;6186;52.022;4.692;2023-02-17T13:45:48;102071.31;;;12.11;100.00
12247;BME280;6186;52.022;4.692;2023-02-17T13:50:53;102063.38;;;12.12;100.00
12247;BME280;6186;52.022;4.692;2023-02-17T13:53:24;102060.66;;;12.18;100.00
12247;BME280;6186;52.022;4.692;2023-02-17T13:55:50;102044.81;;;12.17;100.00
12247;BME280;6186;52.022;4.692;2023-02-17T13:58:31;102047.50;;;12.14;100.00
12247;BME280;6186;52.022;4.692;2023-02-17T14:00:58;102041.34;;;12.13;100.00
12247;BME280;6186;52.022;4.692;2023-02-17T14:03:28;102030.81;;;12.12;100.00
12247;BME280;6186;52.022;4.692;2023-02-17T14:05:57;102043.13;;;12.13;100.00